Terminal Aerodrome Forecast
Issued by NWS

Home | Current Version | Previous Version | Text Only | Print | Product List | Glossary On
Versions: 1 2 3 4 5 6 7 8 9 10 11 12 13 14 15 16 17 18 19 20 21 22 23 24 25 26 27 28
000
FTUS45 KGJT 201736
TAFRIL
TAF
KRIL 201736Z 2018/2118 34006KT P6SM VCTS SCT050CB SCT080
      TEMPO 2018/2022 VRB10G20KT -TSRA BKN050CB
     FM202200 29007KT P6SM VCTS SCT050CB BKN080
     FM210000 21005KT P6SM BKN100
     FM210600 VRB03KT P6SM SCT100
     FM211200 VRB03KT P6SM SKC=

USA.gov is the U.S. government's official web portal to all federal, state and local government web resources and services.